createdAt,value
2019-05-01T00:00:29.313Z,0.00
2019-05-01T00:01:08.316Z,0.00
2019-05-01T00:02:12.317Z,0.00
2019-05-01T00:03:08.816Z,0.00
2019-05-01T00:04:08.815Z,0.00
2019-05-01T00:05:08.816Z,0.00
2019-05-01T00:06:08.816Z,0.00
2019-05-01T00:07:09.320Z,0.00
2019-05-01T00:08:13.320Z,0.00
2019-05-01T00:09:09.313Z,0.00
2019-05-01T00:10:09.319Z,0.00
2019-05-01T00:11:09.822Z,0.00
2019-05-01T00:12:09.815Z,0.00
2019-05-01T00:13:09.815Z,0.00
2019-05-01T00:14:13.323Z,0.00
2019-05-01T00:15:11.785Z,0.00
2019-05-01T00:16:11.286Z,0.00
2019-05-01T00:17:10.312Z,0.00
2019-05-01T00:18:31.320Z,0.00
2019-05-01T00:19:14.323Z,0.00
2019-05-01T00:20:10.814Z,0.00
2019-05-01T00:21:10.820Z,0.00
2019-05-01T00:22:10.856Z,0.00
2019-05-01T00:24:46.055Z,0.00
2019-05-01T00:25:42.562Z,0.00
2019-05-01T00:26:42.562Z,0.00
2019-05-01T00:27:43.062Z,0.00
2019-05-01T00:28:43.062Z,0.00
2019-05-01T00:30:08.062Z,0.00
2019-05-01T00:30:43.065Z,0.00
2019-05-01T00:32:05.509Z,0.00
2019-05-01T00:34:14.884Z,0.00
2019-05-01T00:35:18.393Z,0.00
2019-05-01T00:36:14.886Z,0.00
2019-05-01T00:37:15.387Z,0.00
2019-05-01T00:38:15.389Z,0.00
2019-05-01T00:39:15.384Z,0.00
2019-05-01T00:40:18.892Z,0.00
2019-05-01T00:41:36.886Z,0.00
2019-05-01T00:42:15.886Z,0.00
2019-05-01T00:43:15.888Z,0.00
2019-05-01T00:44:15.893Z,0.00
2019-05-01T00:45:19.894Z,0.00
2019-05-01T00:46:16.385Z,0.00
2019-05-01T00:47:16.386Z,0.00
2019-05-01T00:48:16.389Z,0.00
2019-05-01T00:49:16.908Z,0.00
2019-05-01T00:50:16.917Z,0.00
2019-05-01T00:52:52.385Z,0.00
2019-05-01T00:53:52.393Z,0.00
2019-05-01T00:54:52.392Z,0.00
2019-05-01T00:55:52.885Z,0.00
2019-05-01T00:56:56.390Z,0.00
2019-05-01T00:57:52.889Z,0.00
2019-05-01T00:58:53.864Z,0.00
2019-05-01T01:00:14.390Z,0.00
2019-05-01T01:00:53.390Z,0.00
2019-05-01T01:01:56.891Z,0.00
2019-05-01T01:02:53.398Z,0.00
2019-05-01T01:03:53.890Z,0.00
2019-05-01T01:04:53.894Z,0.00
2019-05-01T01:06:14.890Z,0.00
2019-05-01T01:07:18.890Z,0.00
2019-05-01T01:08:15.390Z,0.00
2019-05-01T01:09:15.395Z,0.00
2019-05-01T01:10:15.395Z,0.00
2019-05-01T01:10:56.824Z,0.00
2019-05-01T01:12:26.345Z,0.00
2019-05-01T01:13:20.323Z,0.00
2019-05-01T01:13:54.889Z,0.00
2019-05-01T01:15:15.889Z,0.00
2019-05-01T01:15:54.891Z,0.00
2019-05-01T01:17:16.389Z,0.00
2019-05-01T01:17:58.891Z,0.00
2019-05-01T01:18:55.397Z,0.00
2019-05-01T01:19:55.389Z,0.00
2019-05-01T01:20:55.889Z,0.00
2019-05-01T01:21:55.891Z,0.00
2019-05-01T01:22:55.896Z,0.00
2019-05-01T01:23:59.898Z,0.00
2019-05-01T01:24:56.389Z,0.00
2019-05-01T01:25:56.391Z,0.00
2019-05-01T01:26:56.391Z,0.00
2019-05-01T01:27:56.389Z,0.00
2019-05-01T01:28:58.363Z,0.00
2019-05-01T01:29:59.889Z,0.00
2019-05-01T01:30:56.982Z,0.00
2019-05-01T01:31:56.888Z,0.00
2019-05-01T01:32:57.388Z,0.00
2019-05-01T01:35:32.749Z,0.00
2019-05-01T01:36:28.760Z,0.00
2019-05-01T01:37:28.763Z,0.00
2019-05-01T01:38:51.695Z,0.00
2019-05-01T01:39:50.259Z,0.00
2019-05-01T01:40:55.726Z,0.00
2019-05-01T01:41:50.256Z,0.00
2019-05-01T01:42:29.256Z,0.00
2019-05-01T01:45:00.991Z,0.00
2019-05-01T01:46:25.498Z,0.00
2019-05-01T01:47:00.997Z,0.00
2019-05-01T01:48:22.498Z,0.00
2019-05-01T01:49:22.506Z,0.00
2019-05-01T01:50:01.497Z,0.00
2019-05-01T01:51:05.499Z,0.00
2019-05-01T01:52:22.996Z,0.00
2019-05-01T01:53:01.997Z,0.00
2019-05-01T01:54:02.002Z,0.00
2019-05-01T01:55:02.003Z,0.00
2019-05-01T01:56:07.472Z,0.00
2019-05-01T01:57:03.432Z,0.00
2019-05-01T01:58:23.497Z,0.00
2019-05-01T01:59:02.504Z,0.00
2019-05-01T02:00:23.996Z,0.00
2019-05-01T02:01:27.996Z,0.00
2019-05-01T02:02:02.994Z,0.00
2019-05-01T02:03:02.996Z,0.00
2019-05-01T02:04:03.500Z,0.00
2019-05-01T02:05:03.502Z,0.00
2019-05-01T02:06:03.494Z,0.00
2019-05-01T02:07:27.996Z,0.00
2019-05-01T02:08:04.009Z,0.00
2019-05-01T02:09:03.998Z,0.00
2019-05-01T02:10:06.444Z,0.00
2019-05-01T02:11:03.996Z,0.00
2019-05-01T02:12:07.996Z,0.00
2019-05-01T02:13:04.495Z,0.00
2019-05-01T02:14:04.499Z,0.00
2019-05-01T02:15:04.501Z,0.00
2019-05-01T02:16:25.996Z,0.00
2019-05-01T02:17:04.996Z,0.00
2019-05-01T02:18:08.996Z,0.00
2019-05-01T02:19:05.041Z,0.00
2019-05-01T02:20:05.501Z,0.00
2019-05-01T02:21:26.498Z,0.00
2019-05-01T02:22:26.497Z,0.00
2019-05-01T02:23:05.495Z,0.00
2019-05-01T02:24:09.050Z,0.00
2019-05-01T02:25:05.993Z,0.00
2019-05-01T02:27:37.354Z,0.00
2019-05-01T02:30:11.835Z,0.00
2019-05-01T02:31:08.836Z,0.00
2019-05-01T02:32:29.837Z,0.00
2019-05-01T02:33:09.338Z,0.00
2019-05-01T02:34:09.340Z,0.00
2019-05-01T02:35:13.344Z,0.00
2019-05-01T02:36:09.336Z,0.00
2019-05-01T02:37:09.843Z,0.00
2019-05-01T02:38:09.841Z,0.00
2019-05-01T02:39:09.836Z,0.00
2019-05-01T02:40:09.838Z,0.00
2019-05-01T02:41:35.350Z,0.00
2019-05-01T02:42:11.790Z,0.00
2019-05-01T02:43:10.339Z,0.00
2019-05-01T02:44:10.341Z,0.00
2019-05-01T02:45:10.338Z,0.00
2019-05-01T02:47:45.074Z,0.00
2019-05-01T02:48:45.083Z,0.00
2019-05-01T02:49:45.092Z,0.00
2019-05-01T02:51:06.584Z,0.00
2019-05-01T02:52:10.088Z,0.00
2019-05-01T02:52:45.591Z,0.00
2019-05-01T02:53:45.592Z,0.00
2019-05-01T02:54:46.085Z,0.00
2019-05-01T02:55:46.081Z,0.00
2019-05-01T02:56:50.081Z,0.00
2019-05-01T02:57:46.081Z,0.00
2019-05-01T03:00:38.823Z,0.00
2019-05-01T03:02:53.300Z,0.00
2019-05-01T03:03:49.307Z,0.00
2019-05-01T03:04:49.309Z,0.00
2019-05-01T03:07:21.040Z,0.00
2019-05-01T03:08:25.073Z,0.00
2019-05-01T03:09:21.047Z,0.00
2019-05-01T03:10:21.567Z,0.00
2019-05-01T03:11:21.556Z,0.00
2019-05-01T03:12:21.551Z,0.00
2019-05-01T03:13:22.499Z,0.00
2019-05-01T03:14:46.546Z,0.00
2019-05-01T03:15:22.045Z,0.00
2019-05-01T03:16:22.055Z,0.00
2019-05-01T03:17:22.045Z,0.00
2019-05-01T03:18:22.049Z,0.00
2019-05-01T03:19:23.480Z,0.00
2019-05-01T03:20:26.046Z,0.00
2019-05-01T03:21:22.545Z,0.00
2019-05-01T03:22:22.552Z,0.00
2019-05-01T03:23:23.050Z,0.00
2019-05-01T03:24:23.051Z,0.00
2019-05-01T03:25:28.479Z,0.00
2019-05-01T03:26:23.049Z,0.00
2019-05-01T03:27:45.500Z,0.00
2019-05-01T03:28:23.552Z,0.00
2019-05-01T03:29:44.547Z,0.00
2019-05-01T03:30:23.546Z,0.00
2019-05-01T03:31:28.488Z,0.00
2019-05-01T03:32:24.054Z,0.00
2019-05-01T03:33:24.045Z,0.00
2019-05-01T03:34:24.053Z,0.00
2019-05-01T03:35:24.045Z,0.00
2019-05-01T03:36:28.045Z,0.00
2019-05-01T03:37:24.544Z,0.00
2019-05-01T03:38:24.562Z,0.00
2019-05-01T03:39:24.545Z,0.00
2019-05-01T03:40:25.062Z,0.00
2019-05-01T03:41:25.979Z,0.00
2019-05-01T03:42:29.045Z,0.00
2019-05-01T03:43:25.049Z,0.00
2019-05-01T03:44:25.547Z,0.00
2019-05-01T03:45:25.546Z,0.00
2019-05-01T03:46:25.552Z,0.00
2019-05-01T03:47:25.541Z,0.00
2019-05-01T03:48:29.044Z,0.00
2019-05-01T03:49:26.042Z,0.00
2019-05-01T03:50:26.046Z,0.00
2019-05-01T03:51:26.043Z,0.00
2019-05-01T03:54:01.785Z,0.00
2019-05-01T03:54:57.796Z,0.00
2019-05-01T03:55:57.830Z,0.00
2019-05-01T03:56:58.284Z,0.00
2019-05-01T03:58:19.301Z,0.00
2019-05-01T03:59:00.252Z,5.63
2019-05-01T04:00:03.798Z,5.63
2019-05-01T04:00:58.285Z,5.63
2019-05-01T04:03:30.021Z,5.63
2019-05-01T04:04:30.028Z,5.63
2019-05-01T04:05:33.525Z,5.63
2019-05-01T04:06:32.530Z,5.63
2019-05-01T04:07:30.528Z,5.63
2019-05-01T04:08:51.525Z,5.63
2019-05-01T04:09:30.524Z,11.25
2019-05-01T04:10:55.524Z,11.25
2019-05-01T04:11:52.025Z,11.25
2019-05-01T04:12:31.024Z,11.25
2019-05-01T04:13:31.025Z,11.25
2019-05-01T04:14:31.529Z,11.25
2019-05-01T04:15:31.536Z,11.25
2019-05-01T04:16:35.524Z,11.25
2019-05-01T04:17:31.524Z,16.88
2019-05-01T04:18:32.024Z,16.88
2019-05-01T04:19:32.024Z,16.88
2019-05-01T04:20:32.021Z,16.88
2019-05-01T04:21:35.523Z,16.88
2019-05-01T04:22:32.527Z,16.88
2019-05-01T04:25:04.829Z,16.88
2019-05-01T04:26:03.888Z,22.50
2019-05-01T04:27:07.394Z,22.50
2019-05-01T04:28:06.822Z,22.50
2019-05-01T04:29:25.388Z,22.50
2019-05-01T04:30:04.394Z,22.50
2019-05-01T04:31:04.410Z,22.50
2019-05-01T04:32:09.373Z,28.13
2019-05-01T04:33:11.821Z,28.13
2019-05-01T04:34:04.887Z,28.13
2019-05-01T04:35:04.888Z,28.13
2019-05-01T04:36:05.391Z,33.75
2019-05-01T04:37:06.363Z,33.75
2019-05-01T04:38:09.391Z,33.75
2019-05-01T04:39:05.386Z,33.75
2019-05-01T04:40:05.887Z,33.75
2019-05-01T04:41:05.887Z,33.75
2019-05-01T04:42:05.887Z,33.75
2019-05-01T04:43:05.887Z,33.75
2019-05-01T04:46:01.874Z,39.38
2019-05-01T04:46:40.878Z,39.38
2019-05-01T04:47:40.880Z,39.38
2019-05-01T04:48:42.312Z,39.38
2019-05-01T04:49:44.883Z,39.38
2019-05-01T04:50:42.313Z,39.38
2019-05-01T04:51:41.378Z,39.38
2019-05-01T04:52:41.874Z,45.00
2019-05-01T04:54:02.877Z,45.00
2019-05-01T04:54:41.884Z,45.00
2019-05-01T04:55:45.877Z,45.00
2019-05-01T04:56:42.380Z,45.00
2019-05-01T04:57:42.380Z,45.00
2019-05-01T04:58:43.359Z,45.00
2019-05-01T04:59:42.378Z,50.63
2019-05-01T05:01:07.386Z,50.63
2019-05-01T05:02:03.877Z,50.63
2019-05-01T05:02:42.879Z,50.63
2019-05-01T05:03:44.816Z,50.63
2019-05-01T05:04:43.378Z,56.25
2019-05-01T05:05:43.377Z,50.63
2019-05-01T05:06:47.376Z,50.63
2019-05-01T05:07:43.384Z,50.63
2019-05-01T05:08:43.876Z,50.63
2019-05-01T05:09:43.881Z,50.63
2019-05-01T05:10:43.876Z,45.00
2019-05-01T05:11:43.876Z,45.00
2019-05-01T05:12:48.376Z,45.00
2019-05-01T05:13:46.873Z,45.00
2019-05-01T05:14:44.384Z,45.00
2019-05-01T05:15:44.375Z,45.00
2019-05-01T05:16:44.875Z,45.00
2019-05-01T05:17:44.879Z,50.63
2019-05-01T05:18:48.445Z,50.63
2019-05-01T05:19:44.876Z,50.63
2019-05-01T05:21:06.376Z,50.63
2019-05-01T05:21:45.375Z,50.63
2019-05-01T05:22:45.375Z,50.63
2019-05-01T05:23:49.375Z,50.63
2019-05-01T05:24:45.875Z,50.63
2019-05-01T05:25:45.875Z,50.63
2019-05-01T05:26:45.875Z,50.63
2019-05-01T05:27:45.874Z,50.63
2019-05-01T05:28:48.373Z,50.63
2019-05-01T05:29:51.833Z,50.63
2019-05-01T05:30:46.374Z,50.63
2019-05-01T05:31:46.375Z,50.63
2019-05-01T05:32:46.374Z,50.63
2019-05-01T05:35:22.113Z,50.63
2019-05-01T05:36:39.120Z,50.63
2019-05-01T05:37:18.118Z,45.00
2019-05-01T05:38:40.577Z,45.00
2019-05-01T05:40:53.439Z,45.00
2019-05-01T05:41:49.950Z,45.00
2019-05-01T05:42:49.948Z,50.63
2019-05-01T05:43:51.883Z,50.63
2019-05-01T05:44:50.448Z,45.00
2019-05-01T05:45:55.951Z,50.63
2019-05-01T05:46:50.449Z,50.63
2019-05-01T05:49:22.188Z,56.25
2019-05-01T05:50:22.190Z,61.88
2019-05-01T05:51:26.189Z,67.50
2019-05-01T05:52:22.689Z,73.13
2019-05-01T05:53:22.689Z,78.75
2019-05-01T05:54:22.689Z,84.38
2019-05-01T05:55:22.691Z,90.00
2019-05-01T05:56:23.186Z,90.00
2019-05-01T05:57:26.189Z,90.00
2019-05-01T05:58:23.202Z,90.00
2019-05-01T05:59:23.188Z,95.63
2019-05-01T06:00:23.689Z,95.63
2019-05-01T06:01:23.692Z,95.63
2019-05-01T06:02:27.688Z,90.00
2019-05-01T06:03:44.704Z,84.38
2019-05-01T06:04:24.189Z,84.38
2019-05-01T06:05:24.188Z,78.75
2019-05-01T06:06:24.187Z,78.75
2019-05-01T06:07:24.189Z,73.13
2019-05-01T06:08:28.693Z,73.13
2019-05-01T06:09:24.691Z,67.50
2019-05-01T06:10:24.688Z,61.88
2019-05-01T06:11:24.706Z,61.88
2019-05-01T06:12:25.188Z,61.88
2019-05-01T06:13:57.147Z,61.88
2019-05-01T06:14:26.984Z,61.88
2019-05-01T06:15:25.189Z,67.50
2019-05-01T06:16:51.496Z,67.50
2019-05-01T06:17:28.565Z,73.13
2019-05-01T06:18:25.692Z,78.75
2019-05-01T06:19:28.687Z,84.38
2019-05-01T06:20:27.638Z,90.00
2019-05-01T06:21:26.187Z,90.00
2019-05-01T06:22:26.194Z,90.00
2019-05-01T06:23:26.187Z,90.00
2019-05-01T06:24:29.692Z,90.00
2019-05-01T06:25:26.695Z,84.38
2019-05-01T06:26:26.687Z,84.38
2019-05-01T06:27:28.156Z,84.38
2019-05-01T06:28:29.585Z,84.38
2019-05-01T06:31:02.364Z,84.38
2019-05-01T06:33:43.840Z,78.75
2019-05-01T06:34:37.357Z,78.75
2019-05-01T06:35:37.669Z,78.75
2019-05-01T06:36:34.356Z,78.75
2019-05-01T06:37:34.356Z,78.75
2019-05-01T06:38:36.178Z,78.75
2019-05-01T06:39:38.356Z,78.75
2019-05-01T06:40:58.167Z,84.38
2019-05-01T06:41:42.153Z,90.00
2019-05-01T06:44:27.338Z,106.88
2019-05-01T06:45:13.128Z,106.88
2019-05-01T06:46:29.093Z,112.50
2019-05-01T06:47:06.849Z,118.13
2019-05-01T06:48:06.845Z,118.13
2019-05-01T06:49:07.160Z,118.13
2019-05-01T06:50:07.540Z,123.75
2019-05-01T06:51:12.911Z,123.75
2019-05-01T06:52:07.344Z,123.75
2019-05-01T06:54:38.828Z,123.75
2019-05-01T06:55:38.836Z,123.75
2019-05-01T06:56:42.845Z,123.75
2019-05-01T06:57:43.866Z,123.75
2019-05-01T06:58:39.337Z,123.75
2019-05-01T06:59:39.336Z,123.75
2019-05-01T07:00:43.090Z,129.38
2019-05-01T07:01:42.835Z,135.00
2019-05-01T07:03:00.839Z,135.00
2019-05-01T07:03:40.817Z,140.63
2019-05-01T07:04:39.844Z,140.63
2019-05-01T07:05:40.337Z,146.25
2019-05-01T07:06:43.835Z,146.25
2019-05-01T07:07:43.106Z,146.25
2019-05-01T07:08:40.352Z,140.63
2019-05-01T07:09:44.099Z,146.25
2019-05-01T07:10:43.923Z,146.25
2019-05-01T07:12:05.335Z,146.25
2019-05-01T07:12:43.269Z,151.88
2019-05-01T07:15:12.571Z,157.50
2019-05-01T07:16:12.572Z,163.13
2019-05-01T07:17:16.578Z,163.13
2019-05-01T07:18:34.074Z,163.13
2019-05-01T07:19:13.080Z,163.13
2019-05-01T07:20:16.702Z,168.75
2019-05-01T07:21:13.085Z,168.75
2019-05-01T07:22:42.360Z,174.38
2019-05-01T07:23:17.381Z,174.38
2019-05-01T07:24:13.574Z,180.00
2019-05-01T07:25:13.576Z,185.63
2019-05-01T07:26:35.091Z,185.63
2019-05-01T07:27:35.078Z,191.25
2019-05-01T07:28:39.073Z,196.88
2019-05-01T07:29:14.079Z,196.88
2019-05-01T07:30:35.576Z,196.88
2019-05-01T07:31:14.574Z,196.88
2019-05-01T07:32:15.136Z,196.88
2019-05-01T07:33:16.746Z,196.88
2019-05-01T07:35:50.309Z,202.50
2019-05-01T07:36:51.717Z,202.50
2019-05-01T07:37:50.312Z,202.50
2019-05-01T07:38:50.806Z,196.88
2019-05-01T07:39:54.306Z,196.88
2019-05-01T07:40:50.813Z,191.25
2019-05-01T07:41:50.806Z,185.63
2019-05-01T07:42:51.309Z,185.63
2019-05-01T07:45:26.624Z,180.00
2019-05-01T07:46:22.678Z,180.00
2019-05-01T07:47:25.932Z,180.00
2019-05-01T07:48:23.178Z,180.00
2019-05-01T07:49:23.178Z,180.00
2019-05-01T07:50:31.832Z,185.63
2019-05-01T07:51:23.182Z,191.25
2019-05-01T07:52:23.678Z,191.25
2019-05-01T07:53:28.008Z,202.50
2019-05-01T07:54:23.678Z,208.13
2019-05-01T07:55:23.683Z,213.75
2019-05-01T07:56:28.084Z,253.13
2019-05-01T07:57:24.178Z,241.88
2019-05-01T07:58:24.180Z,253.13
2019-05-01T07:59:27.503Z,275.63
2019-05-01T08:00:24.685Z,309.38
2019-05-01T08:03:24.803Z,275.63
2019-05-01T08:04:00.362Z,275.63
2019-05-01T08:05:00.362Z,281.25
2019-05-01T08:06:00.367Z,286.88
2019-05-01T08:07:05.335Z,292.50
2019-05-01T08:08:02.877Z,298.13
2019-05-01T08:09:00.861Z,303.75
2019-05-01T08:10:00.864Z,315.00
2019-05-01T08:11:05.301Z,315.00
2019-05-01T08:12:26.369Z,326.25
2019-05-01T08:13:22.360Z,326.25
2019-05-01T08:14:07.369Z,326.25
2019-05-01T08:15:27.614Z,331.88
2019-05-01T08:16:07.120Z,337.50
2019-05-01T08:17:26.889Z,343.13
2019-05-01T08:18:01.868Z,348.75
2019-05-01T08:19:05.819Z,348.75
2019-05-01T08:21:35.727Z,360.00
2019-05-01T08:24:29.449Z,365.63
2019-05-01T08:25:08.456Z,365.63
2019-05-01T08:26:08.941Z,365.63
2019-05-01T08:27:08.981Z,371.25
2019-05-01T08:28:11.467Z,371.25
2019-05-01T08:29:29.954Z,376.88
2019-05-01T08:30:12.697Z,376.88
2019-05-01T08:31:10.910Z,376.88
2019-05-01T08:32:09.452Z,376.88
2019-05-01T08:33:14.681Z,376.88
2019-05-01T08:34:09.458Z,376.88
2019-05-01T08:35:09.456Z,376.88
2019-05-01T08:36:11.588Z,382.50
2019-05-01T08:37:30.960Z,376.88
2019-05-01T08:38:13.956Z,371.25
2019-05-01T08:39:11.425Z,371.25
2019-05-01T08:43:18.146Z,382.50
2019-05-01T08:44:13.129Z,393.75
2019-05-01T08:45:14.562Z,399.38
2019-05-01T08:46:34.633Z,416.25
2019-05-01T08:47:34.627Z,438.75
2019-05-01T08:48:17.626Z,427.50
2019-05-01T08:49:13.653Z,489.38
2019-05-01T08:51:46.323Z,478.13
2019-05-01T08:52:47.414Z,455.63
2019-05-01T08:53:52.746Z,461.25
2019-05-01T08:54:45.889Z,455.63
2019-05-01T08:55:47.102Z,433.13
2019-05-01T08:56:45.889Z,416.25
2019-05-01T08:57:45.890Z,399.38
2019-05-01T08:58:53.824Z,376.88
2019-05-01T08:59:46.390Z,388.13
2019-05-01T09:00:46.389Z,371.25
2019-05-01T09:01:50.540Z,354.38
2019-05-01T09:02:46.897Z,360.00
2019-05-01T09:03:49.759Z,354.38
2019-05-01T09:05:01.678Z,382.50
2019-05-01T09:05:46.889Z,382.50
2019-05-01T09:06:47.390Z,365.63
2019-05-01T09:07:51.292Z,354.38
2019-05-01T09:08:47.388Z,348.75
2019-05-01T09:09:51.389Z,343.13
2019-05-01T09:12:19.133Z,343.13
2019-05-01T09:13:23.825Z,343.13
2019-05-01T09:14:19.142Z,343.13
2019-05-01T09:15:23.140Z,343.13
2019-05-01T09:16:23.481Z,337.50
2019-05-01T09:17:19.641Z,337.50
2019-05-01T09:18:19.640Z,337.50
2019-05-01T09:19:20.151Z,337.50
2019-05-01T09:20:24.141Z,337.50
2019-05-01T09:21:20.141Z,337.50
2019-05-01T09:22:20.153Z,337.50
2019-05-01T09:23:20.645Z,343.13
2019-05-01T09:24:23.233Z,343.13
2019-05-01T09:25:20.641Z,343.13
2019-05-01T09:26:24.146Z,343.13
2019-05-01T09:27:23.739Z,343.13
2019-05-01T09:28:21.150Z,348.75
2019-05-01T09:29:21.141Z,348.75
2019-05-01T09:30:21.815Z,348.75
2019-05-01T09:31:25.141Z,348.75
2019-05-01T09:32:23.642Z,348.75
2019-05-01T09:33:42.647Z,348.75
2019-05-01T09:34:21.641Z,354.38
2019-05-01T09:35:45.429Z,354.38
2019-05-01T09:36:22.110Z,354.38
2019-05-01T09:37:26.157Z,360.00
2019-05-01T09:38:22.141Z,360.00
2019-05-01T09:39:22.142Z,365.63
2019-05-01T09:40:22.642Z,360.00
2019-05-01T09:41:22.638Z,365.63
2019-05-01T09:42:23.817Z,365.63
2019-05-01T09:43:26.143Z,365.63
2019-05-01T09:44:23.141Z,365.63
2019-05-01T09:45:23.144Z,371.25
2019-05-01T09:46:23.148Z,371.25
2019-05-01T09:47:23.151Z,376.88
2019-05-01T09:48:27.642Z,376.88
2019-05-01T09:49:23.646Z,376.88
2019-05-01T09:50:25.830Z,376.88
2019-05-01T09:51:23.636Z,376.88
2019-05-01T09:52:25.098Z,382.50
2019-05-01T09:53:48.642Z,382.50
2019-05-01T09:54:24.148Z,388.13
2019-05-01T09:55:24.948Z,388.13
2019-05-01T09:56:24.142Z,393.75
2019-05-01T09:57:45.650Z,393.75
2019-05-01T09:58:24.643Z,393.75
2019-05-01T09:59:28.643Z,399.38
2019-05-01T10:00:24.643Z,399.38
2019-05-01T10:01:31.652Z,405.00
2019-05-01T10:02:25.140Z,405.00
2019-05-01T10:03:25.147Z,410.63
2019-05-01T10:04:30.301Z,410.63
2019-05-01T10:05:28.910Z,410.63
2019-05-01T10:06:25.709Z,416.25
2019-05-01T10:07:46.642Z,421.88
2019-05-01T10:08:25.649Z,421.88
2019-05-01T10:09:30.153Z,427.50
2019-05-01T10:10:29.290Z,427.50
2019-05-01T10:11:26.143Z,433.13
2019-05-01T10:12:26.141Z,433.13
2019-05-01T10:13:26.141Z,433.13
2019-05-01T10:14:26.643Z,438.75
2019-05-01T10:15:53.153Z,444.38
2019-05-01T10:16:26.643Z,455.63
2019-05-01T10:17:26.644Z,472.50
2019-05-01T10:18:27.143Z,478.13
2019-05-01T10:19:50.169Z,483.75
2019-05-01T10:20:31.152Z,495.00
2019-05-01T10:21:28.852Z,495.00
2019-05-01T10:24:19.893Z,489.38
2019-05-01T10:24:58.920Z,495.00
2019-05-01T10:27:35.772Z,540.00
2019-05-01T10:28:33.111Z,551.25
2019-05-01T10:29:33.104Z,562.50
2019-05-01T10:30:36.341Z,562.50
2019-05-01T10:31:37.104Z,556.88
2019-05-01T10:32:33.616Z,551.25
2019-05-01T10:33:33.858Z,551.25
2019-05-01T10:34:56.661Z,551.25
2019-05-01T10:35:42.346Z,551.25
2019-05-01T10:36:34.107Z,556.88
2019-05-01T10:37:38.039Z,562.50
2019-05-01T10:38:34.106Z,556.88
2019-05-01T10:39:34.606Z,562.50
2019-05-01T10:40:34.605Z,573.75
2019-05-01T10:41:34.605Z,596.25
2019-05-01T10:42:41.003Z,613.13
2019-05-01T10:43:35.109Z,607.50
2019-05-01T10:44:35.106Z,579.38
2019-05-01T10:45:35.106Z,613.13
2019-05-01T10:46:35.105Z,618.75
2019-05-01T10:47:35.604Z,635.63
2019-05-01T10:50:31.890Z,669.38
2019-05-01T10:51:10.897Z,652.50
2019-05-01T10:52:14.357Z,641.25
2019-05-01T10:53:11.396Z,630.00
2019-05-01T10:54:14.897Z,618.75
2019-05-01T10:55:11.396Z,579.38
2019-05-01T10:56:11.396Z,607.50
2019-05-01T10:58:43.156Z,630.00
2019-05-01T11:01:17.612Z,641.25
2019-05-01T11:02:17.617Z,635.63
2019-05-01T11:03:17.617Z,646.88
2019-05-01T11:04:17.617Z,618.75
2019-05-01T11:05:21.117Z,579.38
2019-05-01T11:06:39.125Z,641.25
2019-05-01T11:07:39.120Z,635.63
2019-05-01T11:08:18.117Z,613.13
2019-05-01T11:11:14.869Z,618.75
2019-05-01T11:11:49.877Z,624.38
2019-05-01T11:12:49.876Z,624.38
2019-05-01T11:15:21.632Z,894.38
2019-05-01T11:16:27.080Z,905.63
2019-05-01T11:17:21.644Z,1080.00
2019-05-01T11:18:21.641Z,1310.63
2019-05-01T11:19:22.137Z,871.88
2019-05-01T11:20:43.139Z,731.25
2019-05-01T11:21:22.142Z,686.25
2019-05-01T11:22:46.637Z,697.50
2019-05-01T11:23:22.637Z,742.50
2019-05-01T11:24:22.639Z,2621.25
2019-05-01T11:25:22.638Z,3172.50
2019-05-01T11:26:22.641Z,1288.13
2019-05-01T11:27:25.646Z,1091.25
2019-05-01T11:28:23.138Z,3301.88
2019-05-01T11:29:23.139Z,3538.13
2019-05-01T11:30:23.141Z,3605.63
2019-05-01T11:31:23.639Z,3481.88
2019-05-01T11:32:26.638Z,1130.63
2019-05-01T11:33:24.043Z,697.50
2019-05-01T11:34:23.639Z,3645.00
2019-05-01T11:35:47.140Z,3684.38
2019-05-01T11:36:24.145Z,3729.38
2019-05-01T11:37:28.139Z,3667.50
2019-05-01T11:38:24.139Z,3538.13
2019-05-01T11:39:27.073Z,3408.75
2019-05-01T11:40:24.640Z,3268.13
2019-05-01T11:41:24.639Z,3116.25
2019-05-01T11:42:24.639Z,3110.63
2019-05-01T11:43:31.147Z,3240.00
2019-05-01T11:44:25.137Z,3425.63
2019-05-01T11:45:25.140Z,3588.75
2019-05-01T11:46:25.139Z,3780.00
2019-05-01T11:47:25.647Z,3796.88
2019-05-01T11:48:30.095Z,3791.25
2019-05-01T11:49:50.165Z,3751.88
2019-05-01T11:50:25.640Z,3746.25
2019-05-01T11:51:26.142Z,3735.00
2019-05-01T11:52:26.140Z,3690.00
2019-05-01T11:53:26.142Z,3690.00
2019-05-01T11:54:30.190Z,3701.25
2019-05-01T11:55:26.641Z,3813.75
2019-05-01T11:56:28.109Z,3841.88
2019-05-01T11:57:26.650Z,3808.13
2019-05-01T11:58:27.595Z,3780.00
2019-05-01T11:59:28.075Z,3808.13
2019-05-01T12:00:30.164Z,3723.75
2019-05-01T12:01:48.141Z,3690.00
2019-05-01T12:02:27.142Z,3628.13
2019-05-01T12:03:27.138Z,3594.38
2019-05-01T12:04:29.640Z,3616.88
2019-05-01T12:05:31.641Z,3526.88
2019-05-01T12:06:28.609Z,3566.25
2019-05-01T12:07:28.598Z,3667.50
2019-05-01T12:08:49.161Z,3729.38
2019-05-01T12:09:28.141Z,3684.38
2019-05-01T12:10:34.076Z,3729.38
2019-05-01T12:11:32.145Z,3718.13
2019-05-01T12:12:29.609Z,3735.00
2019-05-01T12:13:42.752Z,3335.63
2019-05-01T12:14:28.645Z,843.75
2019-05-01T12:15:28.642Z,579.38
2019-05-01T12:16:29.142Z,483.75
2019-05-01T12:17:32.150Z,444.38
2019-05-01T12:18:50.141Z,433.13
2019-05-01T12:19:29.141Z,461.25
2019-05-01T12:20:50.647Z,573.75
2019-05-01T12:21:50.642Z,984.38
2019-05-01T12:22:54.645Z,860.63
2019-05-01T12:23:29.642Z,2131.88
2019-05-01T12:24:31.139Z,3645.00
2019-05-01T12:25:30.143Z,3583.13
2019-05-01T12:26:30.149Z,3639.38
2019-05-01T12:27:30.191Z,3796.88
2019-05-01T12:28:34.643Z,3892.50
2019-05-01T12:29:30.643Z,3870.00
2019-05-01T12:30:30.644Z,3825.00
2019-05-01T12:31:31.580Z,3701.25
2019-05-01T12:32:52.143Z,3633.75
2019-05-01T12:33:31.151Z,3673.13
2019-05-01T12:34:35.654Z,2368.13
2019-05-01T12:35:31.155Z,855.00
2019-05-01T12:36:36.482Z,1102.50
2019-05-01T12:37:31.650Z,3324.38
2019-05-01T12:38:31.647Z,1614.38
2019-05-01T12:39:31.651Z,3903.75
2019-05-01T12:40:35.651Z,3841.88
2019-05-01T12:41:53.144Z,3296.25
2019-05-01T12:42:32.143Z,2317.50
2019-05-01T12:43:53.150Z,826.88
2019-05-01T12:44:56.078Z,759.38
2019-05-01T12:45:35.644Z,703.13
2019-05-01T12:46:53.644Z,708.75
2019-05-01T12:47:32.648Z,781.88
2019-05-01T12:48:33.151Z,838.13
2019-05-01T12:49:33.186Z,2452.50
2019-05-01T12:50:36.648Z,1586.25
2019-05-01T12:51:33.144Z,1164.38
2019-05-01T12:52:54.644Z,1063.13
2019-05-01T12:53:54.646Z,950.63
2019-05-01T12:54:54.645Z,1108.13
2019-05-01T12:55:35.101Z,787.50
2019-05-01T12:56:37.649Z,736.88
2019-05-01T12:57:55.145Z,708.75
2019-05-01T12:58:55.982Z,680.63
2019-05-01T12:59:35.607Z,675.00
2019-05-01T13:00:55.645Z,821.25
2019-05-01T13:01:59.154Z,815.63
2019-05-01T13:02:35.579Z,945.00
2019-05-01T13:03:34.645Z,1473.75
2019-05-01T13:04:56.144Z,1063.13
2019-05-01T13:05:56.146Z,742.50
2019-05-01T13:06:35.146Z,545.63
2019-05-01T13:07:39.146Z,478.13
2019-05-01T13:08:37.121Z,489.38
2019-05-01T13:09:35.656Z,545.63
2019-05-01T13:10:35.646Z,675.00
2019-05-01T13:11:35.646Z,2953.13
2019-05-01T13:13:00.649Z,3116.25
2019-05-01T13:13:36.146Z,675.00
2019-05-01T13:14:36.146Z,624.38
2019-05-01T13:15:36.146Z,472.50
2019-05-01T13:16:38.644Z,410.63
2019-05-01T13:17:36.646Z,365.63
2019-05-01T13:18:40.147Z,348.75
2019-05-01T13:19:36.649Z,326.25
2019-05-01T13:20:37.152Z,331.88
2019-05-01T13:21:37.146Z,354.38
2019-05-01T13:22:37.146Z,382.50
2019-05-01T13:23:41.648Z,421.88
2019-05-01T13:24:37.650Z,444.38
2019-05-01T13:25:37.653Z,466.88
2019-05-01T13:26:37.650Z,511.88
2019-05-01T13:27:37.647Z,596.25
2019-05-01T13:28:38.147Z,877.50
2019-05-01T13:29:41.150Z,1096.88
2019-05-01T13:30:38.170Z,658.13
2019-05-01T13:31:38.150Z,646.88
2019-05-01T13:32:38.673Z,720.00
2019-05-01T13:33:38.650Z,787.50
2019-05-01T13:34:42.651Z,1215.00
2019-05-01T13:35:38.648Z,866.25
2019-05-01T13:36:41.148Z,759.38
2019-05-01T13:39:31.533Z,894.38
2019-05-01T13:40:14.035Z,613.13
2019-05-01T13:41:12.472Z,579.38
2019-05-01T13:42:11.037Z,1395.00
2019-05-01T13:43:32.051Z,585.00
2019-05-01T13:44:11.037Z,500.63
2019-05-01T13:45:15.049Z,450.00
2019-05-01T13:46:11.538Z,489.38
2019-05-01T13:47:11.537Z,416.25